METAR AND TAF INFORMATION
METAR FOR BIKF
BIKF 130930Z 36014KT 9999 FEW028 M02/M09 Q1002
BIKF 130900Z 36013KT 9999 SCT028 M02/M09 Q1002
BIKF 130830Z 36014KT 9999 BKN028 M02/M08 Q1002
BIKF 130800Z 01014KT 9999 BKN029 M02/M08 Q1001
BIKF 130730Z 36014KT 9999 BKN029 M03/M08 Q1001
BIKF 130700Z 36015KT 9999 BKN030 M03/M09 Q1001
BIKF 130630Z 35014KT 9999 BKN029 M03/M09 Q1001

TAF BIKF 130753Z 1309/1409 01013KT 9999 SCT030 TX02/1315Z TNM03/1309Z
BECMG 1313/1315 31007KT
BECMG 1320/1322 15010KT
BECMG 1402/1404 13018G28KT BKN020
TEMPO 1405/1409 2500 SNRA OVC008

 AIRPORT MAP

 RUNWAY INFORMATION
Runway 02 Runway length 10019 ft Runway width 197 ft
Runway elevation 137 ft Runway displaced threshold 19 ft Runway heading 360
Runway 20 Runway length 10019 ft Runway width 197 ft
Runway elevation 163 ft Runway displaced threshold 19 ft Runway heading 180
Runway 11 Runway length 10056 ft Runway width 197 ft
Runway elevation 111 ft Runway displaced threshold 43 ft Runway heading 90
Runway 29 Runway length 10056 ft Runway width 197 ft
Runway elevation 171 ft Runway displaced threshold 43 ft Runway heading 270

 AIRPORT FREQUENCIES
Type A/G Name AIR GND Frequency 131.9 MHZ
Type APP Name APP Frequency 119.3 MHZ
Type ATIS Name ATIS Frequency 128.3 MHZ
Type DEP Name DEP Frequency 119.3 MHZ
Type GND Name GND Frequency 121.9 MHZ
Type OPS Name BASE OPS Frequency 129 MHZ
Type PMSV Name PMSV METR Frequency 125 MHZ
Type TWR Name TWR Frequency 118.3 MHZ

 AIRPORT NEAR NAVIGATION AIDS
Type VORTAC Name Keflavik Frequency 112000 KHZ
Type NDB Name Keflavik Frequency 392 KHZ
Type NDB Name Oscar Kilo Frequency 364 KHZ

-